Time;durP1;ratioP1;P1;durP2;ratioP2;P2;SDS_P1;SDS_P2;PMS_P1;PMS_P2;Temp;Humidity;BMP_temperature;BMP_pressure;BME280_temperature;BME280_humidity;BME280_pressure;Samples;Min_cycle;Max_cycle;Signal;HPM_P1;HPM_P2
2022/09/04 00:00:17;;;;;;;;;12.00;12.00;;;;;25.17;44.27;100867.69;5036236;28;46537;-45
2022/09/04 00:03:01;;;;;;;;;13.00;12.00;;;;;25.16;44.21;100866.00;5017494;28;45757;-42
2022/09/04 00:05:35;;;;;;;;;11.25;9.25;;;;;25.18;43.76;100874.69;5022595;28;45450;-45
2022/09/04 00:08:19;;;;;;;;;13.00;11.25;;;;;25.15;44.32;100878.41;5028155;28;45425;-41
2022/09/04 00:10:54;;;;;;;;;12.75;11.00;;;;;25.18;43.89;100880.00;5023418;28;45328;-42
2022/09/04 00:13:28;;;;;;;;;11.50;11.50;;;;;25.18;44.31;100885.31;5019516;28;45691;-42
2022/09/04 00:16:18;;;;;;;;;12.00;11.75;;;;;25.18;43.94;100880.00;5040067;28;45422;-41
2022/09/04 00:19:06;;;;;;;;;11.75;11.75;;;;;25.19;44.11;100881.66;5047141;28;45271;-41
2022/09/04 00:22:13;;;;;;;;;12.00;10.75;;;;;25.21;43.67;100890.34;5044515;28;45263;-42
2022/09/04 00:24:44;;;;;;;;;14.25;14.25;;;;;25.19;44.18;100892.28;4977624;28;45432;-41
2022/09/04 00:27:16;;;;;;;;;13.00;13.00;;;;;25.18;43.93;100893.25;5032564;28;45323;-41
2022/09/04 00:30:07;;;;;;;;;12.00;10.00;;;;;25.18;43.68;100895.91;5035900;28;45354;-41
2022/09/04 00:32:44;;;;;;;;;12.50;12.50;;;;;25.17;44.28;100902.19;5037135;28;45357;-46
2022/09/04 00:35:15;;;;;;;;;13.50;10.75;;;;;25.16;44.01;100900.47;5039348;28;45800;-47
2022/09/04 00:37:50;;;;;;;;;11.00;11.00;;;;;25.14;43.65;100908.53;5040750;28;45307;-47
2022/09/04 00:40:25;;;;;;;;;12.25;11.75;;;;;25.11;44.42;100908.78;5040336;28;45402;-47
2022/09/04 00:43:09;;;;;;;;;12.25;10.50;;;;;25.10;43.67;100911.53;5040767;28;47064;-42
2022/09/04 00:45:45;;;;;;;;;10.75;10.75;;;;;25.09;43.72;100908.03;5045876;28;45928;-42
2022/09/04 00:48:10;;;;;;;;;10.75;10.75;;;;;25.10;43.93;100912.38;5049967;28;45750;-44
2022/09/04 00:51:00;;;;;;;;;12.33;12.33;;;;;25.11;44.27;100905.25;5040699;28;45347;-42
2022/09/04 00:53:49;;;;;;;;;11.50;11.50;;;;;25.12;44.11;100913.13;5043417;28;46184;-41
2022/09/04 00:56:44;;;;;;;;;13.00;12.50;;;;;25.12;44.30;100909.63;5041118;28;45437;-46
2022/09/04 00:59:25;;;;;;;;;14.00;12.50;;;;;25.13;43.52;100916.63;5060513;28;45197;-45
2022/09/04 01:02:00;;;;;;;;;11.50;10.75;;;;;25.12;44.04;100921.09;5024570;28;45566;-45
2022/09/04 01:04:50;;;;;;;;;12.75;11.25;;;;;25.13;43.58;100913.97;5020275;28;45647;-52
2022/09/04 01:07:34;;;;;;;;;11.00;11.00;;;;;25.14;43.81;100919.13;5020171;28;45388;-45
2022/09/04 01:10:14;;;;;;;;;10.25;8.25;;;;;25.16;43.51;100929.66;5019547;28;45431;-49
2022/09/04 01:12:44;;;;;;;;;13.25;11.50;;;;;25.16;43.50;100927.00;5018432;28;45641;-49
2022/09/04 01:15:17;;;;;;;;;13.25;11.00;;;;;25.16;44.18;100930.50;5034557;28;46515;-56
2022/09/04 01:18:06;;;;;;;;;11.00;11.00;;;;;25.14;43.31;100929.75;5044595;28;45494;-49
2022/09/04 01:20:52;;;;;;;;;12.00;10.75;;;;;25.13;43.72;100927.22;5041527;28;45347;-51
2022/09/04 01:24:10;;;;;;;;;13.00;13.00;;;;;25.12;43.79;100928.19;5043489;28;45403;-56
2022/09/04 01:26:45;;;;;;;;;12.00;10.75;;;;;25.11;43.83;100932.66;4985423;28;46490;-42
2022/09/04 01:29:34;;;;;;;;;13.00;11.25;;;;;25.09;43.29;100939.00;4980310;28;46007;-43
2022/09/04 01:32:27;;;;;;;;;10.50;10.50;;;;;25.08;43.19;100940.00;5014787;28;45437;-47
2022/09/04 01:35:07;;;;;;;;;9.00;9.00;;;;;25.07;43.10;100944.44;5018623;28;45304;-47
2022/09/04 01:37:54;;;;;;;;;12.00;10.25;;;;;25.05;43.37;100938.38;5019719;28;46286;-45
2022/09/04 01:40:41;;;;;;;;;11.50;11.50;;;;;25.05;43.27;100941.03;5017746;28;45697;-43
2022/09/04 01:43:19;;;;;;;;;9.75;9.75;;;;;25.05;43.11;100940.22;5029030;28;45357;-41
2022/09/04 01:46:06;;;;;;;;;10.00;10.00;;;;;25.05;43.21;100956.13;5042110;28;45235;-42
2022/09/04 01:48:38;;;;;;;;;10.75;10.75;;;;;25.04;43.48;100951.78;5044420;28;45316;-43
2022/09/04 01:51:14;;;;;;;;;9.25;9.25;;;;;25.00;43.15;100944.03;5043427;28;45755;-45
2022/09/04 01:53:44;;;;;;;;;10.50;10.50;;;;;24.99;43.53;100938.84;5047472;28;44706;-49
2022/09/04 01:56:42;;;;;;;;;9.25;9.25;;;;;24.97;42.97;100941.59;5054568;28;45239;-45
2022/09/04 01:59:24;;;;;;;;;10.25;10.25;;;;;24.98;42.91;100947.75;5004862;28;45155;-44
2022/09/04 02:02:00;;;;;;;;;11.00;9.25;;;;;24.97;43.30;100952.19;5029586;28;45474;-54
2022/09/04 02:04:31;;;;;;;;;12.00;10.00;;;;;24.96;42.80;100954.97;5021466;28;45431;-52
2022/09/04 02:07:21;;;;;;;;;11.75;10.00;;;;;24.95;43.36;100961.22;5032138;28;44733;-45
2022/09/04 02:09:46;;;;;;;;;9.75;9.75;;;;;24.95;43.56;100967.41;5027237;28;46368;-43
2022/09/04 02:12:49;;;;;;;;;13.00;10.00;;;;;24.97;43.00;100968.09;5029835;28;45308;-41
2022/09/04 02:15:48;;;;;;;;;11.00;10.00;;;;;24.96;42.82;100963.78;5038622;28;45376;-41
2022/09/04 02:19:03;;;;;;;;;11.75;9.25;;;;;24.98;43.14;100961.84;5038472;28;45425;-43
2022/09/04 02:21:43;;;;;;;;;7.25;7.00;;;;;24.98;43.42;100971.63;4976085;28;46156;-41
2022/09/04 02:24:20;;;;;;;;;10.25;10.25;;;;;25.00;43.32;100975.00;5037425;28;45752;-47
2022/09/04 02:27:00;;;;;;;;;9.00;9.00;;;;;25.02;43.24;100973.09;5038663;28;45458;-41
2022/09/04 02:29:38;;;;;;;;;9.00;9.00;;;;;25.03;43.41;100976.59;5037640;28;46013;-45
2022/09/04 02:32:36;;;;;;;;;7.50;7.50;;;;;25.05;43.00;100979.97;5038608;28;47110;-41
2022/09/04 02:35:29;;;;;;;;;11.00;10.75;;;;;25.08;42.87;100977.94;5035785;28;45323;-41
2022/09/04 02:38:02;;;;;;;;;8.75;8.75;;;;;25.09;42.96;100977.00;5046957;28;45173;-41
2022/09/04 02:40:58;;;;;;;;;8.75;8.75;;;;;25.12;43.19;100983.88;5041546;28;45374;-41
2022/09/04 02:43:51;;;;;;;;;10.00;8.00;;;;;25.14;43.20;100990.75;5043320;28;46421;-42
2022/09/04 02:46:19;;;;;;;;;8.00;8.00;;;;;25.15;42.51;100987.13;5052632;28;45869;-41
2022/09/04 02:48:59;;;;;;;;;9.50;8.50;;;;;25.17;42.82;100979.09;5040545;28;45259;-42
2022/09/04 02:52:03;;;;;;;;;8.25;8.25;;;;;25.19;42.62;100994.88;5039330;28;45471;-41
2022/09/04 02:54:47;;;;;;;;;9.00;9.00;;;;;25.21;42.36;101000.94;5038345;28;45477;-46
2022/09/04 02:57:38;;;;;;;;;10.25;10.00;;;;;25.22;42.45;101007.94;5039001;28;45631;-45
2022/09/04 03:00:18;;;;;;;;;10.50;10.00;;;;;25.22;42.99;101007.94;5052023;28;44816;-46
2022/09/04 03:03:11;;;;;;;;;10.25;9.25;;;;;25.22;42.28;101003.47;5044380;28;45429;-43
2022/09/04 03:05:49;;;;;;;;;10.00;9.00;;;;;25.22;42.44;100994.66;5043417;28;46392;-41
2022/09/04 03:08:19;;;;;;;;;8.00;8.00;;;;;25.21;42.61;100996.47;5039074;28;45373;-47
2022/09/04 03:10:56;;;;;;;;;7.25;7.25;;;;;25.22;42.61;100998.16;5037887;28;45231;-42
2022/09/04 03:13:42;;;;;;;;;9.50;9.00;;;;;25.23;42.26;100993.72;5037290;28;45338;-46
2022/09/04 03:16:39;;;;;;;;;7.75;7.25;;;;;25.23;42.02;100999.03;5042061;28;45390;-43
2022/09/04 03:19:19;;;;;;;;;10.50;8.00;;;;;25.23;42.31;100999.84;5037822;28;45832;-44
2022/09/04 03:21:49;;;;;;;;;8.50;7.75;;;;;25.24;42.65;101000.72;5042992;28;45325;-42
2022/09/04 03:24:40;;;;;;;;;6.50;6.00;;;;;25.24;42.54;101009.50;5043863;28;45416;-41
2022/09/04 03:27:12;;;;;;;;;8.00;7.50;;;;;25.24;42.40;101001.53;5039545;28;46558;-43
2022/09/04 03:30:04;;;;;;;;;6.25;6.25;;;;;25.24;42.60;101006.84;5041011;28;45662;-45
2022/09/04 03:32:38;;;;;;;;;7.25;7.25;;;;;25.24;42.45;100998.91;5045030;28;45318;-44
2022/09/04 03:35:13;;;;;;;;;6.25;6.25;;;;;25.26;42.46;101002.28;5039524;28;45334;-46
2022/09/04 03:38:18;;;;;;;;;6.75;6.00;;;;;25.26;42.48;101004.94;5037538;28;45457;-44
2022/09/04 03:40:43;;;;;;;;;6.25;6.25;;;;;25.26;42.55;101010.25;5028506;28;45339;-46
2022/09/04 03:43:35;;;;;;;;;9.00;9.00;;;;;25.27;42.62;101006.63;5036313;28;45474;-54
2022/09/04 03:46:12;;;;;;;;;5.25;5.25;;;;;25.27;42.00;101009.28;5037915;28;45549;-53
2022/09/04 03:49:13;;;;;;;;;9.75;8.75;;;;;25.26;41.73;101004.94;5037143;28;46176;-47
2022/09/04 03:52:04;;;;;;;;;7.00;7.00;;;;;25.27;41.91;101005.78;5041272;28;45435;-44
2022/09/04 03:54:35;;;;;;;;;6.00;6.00;;;;;25.26;42.08;101001.41;5049954;28;45397;-42
2022/09/04 03:57:13;;;;;;;;;6.75;6.75;;;;;25.26;42.13;101010.25;5046070;28;45347;-44
2022/09/04 03:59:48;;;;;;;;;6.00;5.00;;;;;25.26;41.74;101015.56;5051469;28;45090;-45
2022/09/04 04:02:47;;;;;;;;;9.00;6.00;;;;;25.26;42.33;101010.25;5048044;28;45422;-50
2022/09/04 04:05:26;;;;;;;;;7.50;7.25;;;;;25.27;41.68;101011.06;5040696;28;45330;-45
2022/09/04 04:08:26;;;;;;;;;9.25;7.00;;;;;25.25;41.55;101008.56;5039501;28;45308;-46
2022/09/04 04:11:02;;;;;;;;;6.00;6.00;;;;;25.24;41.90;101017.47;5056299;28;45240;-45
2022/09/04 04:14:04;;;;;;;;;5.00;4.75;;;;;25.26;41.56;101014.69;5041437;28;45620;-46
2022/09/04 04:17:07;;;;;;;;;6.25;6.25;;;;;25.25;41.83;101024.47;5037282;28;45432;-50
2022/09/04 04:19:47;;;;;;;;;6.25;6.25;;;;;25.26;41.61;101025.28;5040262;28;45383;-54
2022/09/04 04:22:34;;;;;;;;;6.50;5.75;;;;;25.26;41.81;101028.81;5049282;28;45545;-43
2022/09/04 04:25:30;;;;;;;;;8.50;6.50;;;;;25.27;41.99;101024.34;5042619;28;45613;-51
2022/09/04 04:28:18;;;;;;;;;6.00;6.00;;;;;25.26;42.02;101018.19;5042338;28;45426;-47
2022/09/04 04:30:53;;;;;;;;;5.00;5.00;;;;;25.27;41.81;101021.69;5037168;28;45315;-45
2022/09/04 04:33:24;;;;;;;;;5.50;5.50;;;;;25.25;41.93;101029.78;5036599;28;46233;-45
2022/09/04 04:36:16;;;;;;;;;5.50;5.50;;;;;25.26;41.94;101031.47;5035368;28;45815;-40
2022/09/04 04:39:10;;;;;;;;;7.75;5.50;;;;;25.26;41.20;101031.47;5038090;28;45326;-40
2022/09/04 04:42:04;;;;;;;;;7.75;6.50;;;;;25.26;41.49;101026.16;5041704;28;45415;-41
2022/09/04 04:47:58;;;;;;;;;5.00;5.00;;;;;25.25;41.42;101029.78;5016504;28;45241;-41
2022/09/04 04:50:31;;;;;;;;;7.75;5.75;;;;;25.25;41.01;101036.88;5017570;28;45243;-42
2022/09/04 04:53:48;;;;;;;;;5.00;5.00;;;;;25.25;41.64;101036.88;5021382;28;45336;-45
2022/09/04 04:56:45;;;;;;;;;4.75;4.00;;;;;25.24;40.95;101049.28;5026716;28;45355;-45
2022/09/04 04:59:19;;;;;;;;;5.00;5.00;;;;;25.24;41.69;101041.34;5030946;28;45192;-41
2022/09/04 05:02:06;;;;;;;;;4.50;4.50;;;;;25.24;41.20;101043.16;5033871;28;45288;-43
2022/09/04 05:04:56;;;;;;;;;7.50;6.00;;;;;25.24;41.36;101051.13;5023247;28;45419;-47
2022/09/04 05:07:40;;;;;;;;;5.00;5.00;;;;;25.25;40.98;101060.75;5016082;28;45391;-47
2022/09/04 05:10:20;;;;;;;;;6.00;6.00;;;;;25.23;40.90;101052.91;5016842;28;45700;-42
2022/09/04 05:13:10;;;;;;;;;4.25;4.00;;;;;25.25;40.88;101060.75;5031304;28;45406;-42
2022/09/04 05:16:01;;;;;;;;;6.00;5.00;;;;;25.25;40.62;101060.75;5057873;28;45402;-47
2022/09/04 05:18:46;;;;;;;;;4.75;4.75;;;;;25.24;41.18;101064.38;5038694;28;45452;-44
2022/09/04 05:21:22;;;;;;;;;3.00;3.00;;;;;25.24;41.23;101072.34;5043075;28;45411;-47
2022/09/04 05:23:58;;;;;;;;;4.75;4.75;;;;;25.23;41.40;101066.16;5048370;28;45317;-44
2022/09/04 05:26:29;;;;;;;;;6.00;5.75;;;;;25.24;40.93;101075.81;5038833;28;45435;-48
2022/09/04 05:29:27;;;;;;;;;8.75;4.50;;;;;25.24;40.87;101075.81;5039811;28;46931;-45
2022/09/04 05:32:00;;;;;;;;;5.50;4.75;;;;;25.24;40.88;101086.44;5039879;28;45727;-41
2022/09/04 05:34:32;;;;;;;;;5.00;4.25;;;;;25.22;41.02;101091.00;5040461;28;45232;-44
2022/09/04 05:37:15;;;;;;;;;3.50;3.50;;;;;25.22;41.14;101092.81;5042861;28;45518;-42
2022/09/04 05:39:54;;;;;;;;;4.25;4.25;;;;;25.19;40.98;101096.50;5038302;28;46194;-44
2022/09/04 05:42:46;;;;;;;;;7.00;5.00;;;;;25.17;40.97;101095.78;5038376;28;45406;-42
2022/09/04 05:45:27;;;;;;;;;4.50;4.50;;;;;25.14;41.23;101101.31;5043679;28;45324;-45
2022/09/04 05:48:14;;;;;;;;;6.00;6.00;;;;;25.13;41.16;101107.56;5044996;28;45457;-51
2022/09/04 05:50:54;;;;;;;;;7.50;5.25;;;;;25.11;40.75;101106.81;5048646;28;46235;-49
2022/09/04 05:53:39;;;;;;;;;6.25;5.00;;;;;25.08;40.28;101112.38;5048520;28;45681;-49
2022/09/04 05:56:23;;;;;;;;;5.25;5.25;;;;;25.03;40.68;101117.13;5041562;28;45264;-49
2022/09/04 05:59:16;;;;;;;;;4.25;4.25;;;;;25.00;40.92;101121.69;5046213;28;45426;-46
2022/09/04 06:02:09;;;;;;;;;5.00;5.00;;;;;25.00;41.00;101121.69;5042252;28;45575;-50
2022/09/04 06:04:43;;;;;;;;;5.25;4.25;;;;;24.94;40.65;101122.13;5039102;28;45333;-44
2022/09/04 06:07:33;;;;;;;;;5.25;5.00;;;;;24.92;41.32;101118.72;5039238;28;45304;-45
2022/09/04 06:10:07;;;;;;;;;5.00;5.00;;;;;24.94;40.98;101121.25;5038952;28;45351;-41
2022/09/04 06:12:51;;;;;;;;;4.25;4.25;;;;;24.94;41.39;101122.13;5037718;28;46511;-42
2022/09/04 06:15:34;;;;;;;;;5.00;5.00;;;;;24.97;40.88;101124.53;5038635;28;45226;-42
2022/09/04 06:18:08;;;;;;;;;6.00;4.75;;;;;24.99;41.13;101130.59;5041758;28;45548;-41
2022/09/04 06:21:00;;;;;;;;;6.00;6.00;;;;;25.00;41.08;101131.47;5053705;28;45224;-50
2022/09/04 06:23:42;;;;;;;;;4.75;4.75;;;;;25.02;40.90;101129.56;5047994;28;45368;-51
2022/09/04 06:26:23;;;;;;;;;7.00;4.25;;;;;25.04;40.51;101134.75;5038424;28;45248;-41
2022/09/04 06:29:34;;;;;;;;;4.50;4.50;;;;;24.99;40.93;101141.19;5040136;28;45370;-48
2022/09/04 06:32:27;;;;;;;;;6.00;6.00;;;;;24.97;41.17;101143.09;4979716;28;45656;-52
2022/09/04 06:35:13;;;;;;;;;6.00;5.25;;;;;24.96;40.76;101144.09;5045551;28;46370;-52
2022/09/04 06:37:50;;;;;;;;;4.00;4.00;;;;;24.98;40.60;101142.16;5052051;28;45035;-47
2022/09/04 06:40:33;;;;;;;;;5.75;5.25;;;;;24.99;41.00;101146.50;5050803;28;45395;-46
2022/09/04 06:43:28;;;;;;;;;4.00;4.00;;;;;24.97;40.53;101148.41;5026781;28;45186;-42
2022/09/04 06:46:04;;;;;;;;;5.00;5.00;;;;;24.93;40.56;101157.56;5020397;28;45246;-45
2022/09/04 06:48:47;;;;;;;;;4.75;4.75;;;;;24.94;40.76;101164.56;5019576;28;45775;-42
2022/09/04 06:51:39;;;;;;;;;5.25;5.00;;;;;24.96;40.54;101159.13;5017963;28;45312;-42
2022/09/04 06:54:35;;;;;;;;;7.00;6.00;;;;;24.96;40.70;101167.97;5016828;28;45222;-40
2022/09/04 06:57:19;;;;;;;;;6.00;5.00;;;;;24.94;41.07;101169.00;5034852;28;45274;-44
2022/09/04 07:00:09;;;;;;;;;8.25;5.50;;;;;24.94;40.77;101169.84;5040968;28;45736;-42
2022/09/04 07:02:43;;;;;;;;;5.25;5.25;;;;;24.96;40.63;101164.44;5055382;28;45327;-42
2022/09/04 07:05:36;;;;;;;;;4.50;3.50;;;;;24.98;41.29;101168.66;5038825;28;45339;-46
2022/09/04 07:08:34;;;;;;;;;2.00;2.00;;;;;25.01;40.98;101165.81;5040991;28;47369;-42
2022/09/04 07:11:39;;;;;;;;;4.75;4.75;;;;;25.04;40.76;101169.22;5038595;28;45592;-43
2022/09/04 07:14:26;;;;;;;;;8.00;6.00;;;;;25.04;40.96;101164.75;5041847;28;45366;-41
2022/09/04 07:17:06;;;;;;;;;5.75;5.25;;;;;25.00;40.46;101174.72;5048273;28;45356;-42
2022/09/04 07:20:00;;;;;;;;;7.75;6.50;;;;;24.99;40.49;101180.13;5046411;28;46938;-44
2022/09/04 07:22:44;;;;;;;;;6.00;5.75;;;;;24.98;40.53;101187.22;5048052;28;45426;-42
2022/09/04 07:25:26;;;;;;;;;4.25;4.25;;;;;24.95;40.58;101187.47;5048530;28;45390;-46
2022/09/04 07:28:40;;;;;;;;;4.50;4.25;;;;;24.97;40.55;101195.31;5052068;28;45302;-47
2022/09/04 07:31:05;;;;;;;;;7.50;6.00;;;;;24.99;40.91;101199.53;5026894;28;45609;-46
2022/09/04 07:34:05;;;;;;;;;4.00;4.00;;;;;25.00;40.33;101189.78;5044976;28;45300;-41
2022/09/04 07:36:44;;;;;;;;;4.00;4.00;;;;;25.03;40.60;101196.69;5039980;28;45821;-42
2022/09/04 07:39:24;;;;;;;;;5.00;5.00;;;;;25.03;40.77;101197.53;5043813;28;45189;-44
2022/09/04 07:42:27;;;;;;;;;9.75;5.25;;;;;25.00;40.33;101195.94;5045103;28;45523;-46
2022/09/04 07:45:00;;;;;;;;;5.00;5.00;;;;;25.04;40.35;101198.38;5054251;28;45129;-52
2022/09/04 07:47:41;;;;;;;;;5.00;5.00;;;;;25.06;40.59;101193.81;5050614;28;45335;-46
2022/09/04 07:50:18;;;;;;;;;5.00;5.00;;;;;25.09;40.70;101198.91;5043420;28;45336;-48
2022/09/04 07:53:13;;;;;;;;;5.25;4.25;;;;;25.11;40.57;101208.47;5038984;28;45439;-50
2022/09/04 07:55:49;;;;;;;;;6.00;6.00;;;;;25.15;40.56;101209.09;5039569;28;45529;-42
2022/09/04 07:58:33;;;;;;;;;3.75;3.75;;;;;25.18;40.91;101214.19;5056706;28;44645;-42
2022/09/04 08:01:17;;;;;;;;;4.25;4.25;;;;;25.20;40.60;101217.56;5043332;28;45350;-41
2022/09/04 08:04:29;;;;;;;;;6.00;6.00;;;;;25.23;40.41;101225.31;5038812;28;46244;-41
2022/09/04 08:07:04;;;;;;;;;6.25;5.00;;;;;25.25;40.13;101227.84;5021486;28;45640;-42
2022/09/04 08:09:51;;;;;;;;;5.50;5.50;;;;;25.25;40.66;101226.06;5041015;28;45277;-41
2022/09/04 08:12:38;;;;;;;;;6.25;4.50;;;;;25.26;40.86;101227.78;5045740;28;45180;-42
2022/09/04 08:15:13;;;;;;;;;7.00;5.00;;;;;25.29;40.07;101227.56;5042692;28;45536;-41
2022/09/04 08:17:43;;;;;;;;;3.50;3.50;;;;;25.28;40.08;101233.81;5037284;28;45716;-43
2022/09/04 08:20:22;;;;;;;;;5.25;5.25;;;;;25.29;40.36;101229.34;5036347;28;45323;-41
2022/09/04 08:22:56;;;;;;;;;6.00;6.00;;;;;25.28;40.11;101241.78;5035837;28;45513;-42
2022/09/04 08:25:30;;;;;;;;;6.50;5.50;;;;;25.27;40.09;101236.56;5034418;28;46990;-45
2022/09/04 08:28:16;;;;;;;;;6.00;6.00;;;;;25.26;39.97;101233.06;5037959;28;45440;-44
2022/09/04 08:31:02;;;;;;;;;8.25;5.00;;;;;25.29;39.90;101232.00;5040601;28;45273;-51
2022/09/04 08:34:09;;;;;;;;;5.00;5.00;;;;;25.30;40.09;101234.53;5050114;28;45299;-42
2022/09/04 08:36:47;;;;;;;;;6.25;5.25;;;;;25.30;40.19;101234.53;5045140;28;45420;-44
2022/09/04 08:39:33;;;;;;;;;7.00;6.00;;;;;25.31;40.45;101241.53;5040899;28;45821;-45
2022/09/04 08:42:28;;;;;;;;;3.75;3.75;;;;;25.33;39.83;101244.13;5036671;28;45333;-45
2022/09/04 08:45:42;;;;;;;;;7.25;6.00;;;;;25.35;39.76;101241.34;5015174;28;45558;-42
2022/09/04 08:48:45;;;;;;;;;5.00;5.00;;;;;25.35;40.18;101239.56;5034730;28;47949;-55
2022/09/04 08:51:29;;;;;;;;;4.00;4.00;;;;;25.38;40.41;101246.44;5053771;28;45759;-45
2022/09/04 08:54:16;;;;;;;;;5.00;4.00;;;;;25.39;40.41;101240.19;5041107;28;45470;-43
2022/09/04 08:56:56;;;;;;;;;3.25;3.25;;;;;25.41;40.42;101243.63;5019559;28;45350;-47
2022/09/04 09:00:02;;;;;;;;;4.00;4.00;;;;;25.42;40.10;101248.81;5019964;28;46116;-44
2022/09/04 09:03:05;;;;;;;;;4.75;4.75;;;;;25.44;39.91;101251.34;5033574;28;45280;-42
2022/09/04 09:05:58;;;;;;;;;5.25;5.00;;;;;25.45;39.51;101253.03;5023118;28;45614;-47
2022/09/04 09:08:57;;;;;;;;;4.00;4.00;;;;;25.45;39.63;101251.25;5020518;28;45600;-43
2022/09/04 09:12:04;;;;;;;;;5.75;4.00;;;;;25.44;39.56;101252.22;5019750;28;47217;-42
2022/09/04 09:14:51;;;;;;;;;4.00;4.00;;;;;25.45;39.13;101256.56;5016071;28;45665;-42
2022/09/04 09:17:29;;;;;;;;;5.25;4.75;;;;;25.46;39.64;101254.75;5025205;28;45332;-48
2022/09/04 09:20:16;;;;;;;;;4.75;4.75;;;;;25.46;39.24;101255.59;5020915;28;45309;-43
2022/09/04 09:23:12;;;;;;;;;5.00;5.00;;;;;25.47;39.29;101256.44;5019662;28;46080;-46
2022/09/04 09:25:47;;;;;;;;;4.00;4.00;;;;;25.49;39.92;101259.84;5036531;28;45801;-45
2022/09/04 09:28:31;;;;;;;;;5.75;5.00;;;;;25.51;39.38;101249.97;5041683;28;45308;-42
2022/09/04 09:31:25;;;;;;;;;3.75;3.00;;;;;25.50;39.05;101256.25;5051348;28;45292;-43
2022/09/04 09:34:22;;;;;;;;;5.00;3.75;;;;;25.52;39.68;101248.16;5042648;28;45510;-52
2022/09/04 09:37:22;;;;;;;;;4.25;4.00;;;;;25.54;39.34;101254.22;5041844;28;45165;-45
2022/09/04 09:40:06;;;;;;;;;2.00;2.00;;;;;25.54;38.99;101254.22;5044083;28;45486;-43
2022/09/04 09:43:07;;;;;;;;;6.50;5.50;;;;;25.56;39.06;101255.78;5042595;28;45361;-46
2022/09/04 09:45:38;;;;;;;;;5.50;5.00;;;;;25.57;39.23;101252.19;5045973;28;45208;-48
2022/09/04 09:48:16;;;;;;;;;5.25;4.75;;;;;25.57;39.48;101257.50;5046204;28;45434;-45
2022/09/04 09:51:02;;;;;;;;;9.00;5.50;;;;;25.58;39.02;101256.53;5040530;28;45310;-45
2022/09/04 09:53:49;;;;;;;;;4.25;4.25;;;;;25.60;39.50;101245.81;5042273;28;45304;-42
2022/09/04 09:56:15;;;;;;;;;4.25;4.25;;;;;25.59;38.89;101244.97;5047835;28;45406;-41
2022/09/04 09:58:59;;;;;;;;;5.00;5.00;;;;;25.60;39.30;101251.97;5039905;28;45323;-44
2022/09/04 10:01:24;;;;;;;;;6.00;5.00;;;;;25.60;39.13;101251.97;5039174;28;45222;-44
2022/09/04 10:04:14;;;;;;;;;5.00;5.00;;;;;25.61;39.60;101243.06;5038818;28;45470;-43
2022/09/04 10:07:13;;;;;;;;;4.00;4.00;;;;;25.62;39.52;101236.78;5037208;28;46520;-44
2022/09/04 10:09:50;;;;;;;;;5.75;4.75;;;;;25.63;38.97;101245.59;5007063;28;45706;-47
2022/09/04 10:12:31;;;;;;;;;6.00;5.00;;;;;25.63;38.83;101249.09;5039790;28;45316;-41
2022/09/04 10:15:34;;;;;;;;;5.00;5.00;;;;;25.65;38.71;101240.16;5052855;28;45449;-42
2022/09/04 10:18:25;;;;;;;;;6.00;4.25;;;;;25.66;39.34;101233.91;5014277;28;46657;-42
2022/09/04 10:21:19;;;;;;;;;5.50;5.00;;;;;25.66;39.37;101233.91;5038863;28;45297;-46
2022/09/04 10:24:14;;;;;;;;;4.25;2.25;;;;;25.66;39.09;101233.91;5040044;28;45276;-47
2022/09/04 10:27:17;;;;;;;;;5.00;5.00;;;;;25.67;39.16;101232.94;5038490;28;45292;-44
2022/09/04 10:29:57;;;;;;;;;4.00;4.00;;;;;25.67;38.61;101225.84;5038437;28;46136;-46
2022/09/04 10:32:47;;;;;;;;;4.00;4.00;;;;;25.68;38.69;101227.53;5042933;28;45756;-43
2022/09/04 10:35:35;;;;;;;;;6.00;4.00;;;;;25.69;38.58;101225.72;5043859;28;45172;-45
2022/09/04 10:38:12;;;;;;;;;6.00;5.00;;;;;25.69;38.64;101223.91;5040263;28;45443;-45
2022/09/04 10:41:18;;;;;;;;;9.00;5.50;;;;;25.71;38.91;101226.47;5038440;28;46334;-44
2022/09/04 10:44:14;;;;;;;;;3.25;3.25;;;;;25.72;38.59;101217.56;5020769;28;45341;-44
2022/09/04 10:46:45;;;;;;;;;6.25;4.25;;;;;25.73;38.32;101219.25;5045696;28;45370;-49
2022/09/04 10:49:29;;;;;;;;;4.50;4.50;;;;;25.74;38.37;101215.63;5040935;28;45240;-48
2022/09/04 10:52:23;;;;;;;;;7.00;5.50;;;;;25.74;38.80;101215.63;5041566;28;46345;-50
2022/09/04 10:55:01;;;;;;;;;5.75;4.25;;;;;25.75;38.69;101222.63;5035920;28;45882;-41
2022/09/04 10:57:47;;;;;;;;;5.00;5.00;;;;;25.76;38.48;101211.03;5039278;28;45385;-44
2022/09/04 11:00:19;;;;;;;;;5.00;5.00;;;;;25.77;38.33;101207.44;5042898;28;45303;-43
2022/09/04 11:03:24;;;;;;;;;5.00;5.00;;;;;25.77;38.63;101200.34;5044724;28;46329;-48
2022/09/04 11:06:46;;;;;;;;;4.75;4.50;;;;;25.77;38.63;101207.44;5044073;28;45235;-49
2022/09/04 11:09:30;;;;;;;;;5.25;4.25;;;;;25.79;38.80;101202.88;4999120;28;45900;-43
2022/09/04 11:12:46;;;;;;;;;5.75;4.25;;;;;25.80;38.65;101203.72;5022996;28;45325;-47
2022/09/04 11:15:46;;;;;;;;;5.00;5.00;;;;;25.80;38.54;101196.59;5012589;28;45591;-41
2022/09/04 11:18:52;;;;;;;;;7.00;5.00;;;;;25.81;38.65;101200.09;5023629;28;45285;-43
2022/09/04 11:21:59;;;;;;;;;5.00;5.00;;;;;25.82;38.85;101192.03;5018858;28;45347;-45
2022/09/04 11:25:12;;;;;;;;;5.00;5.00;;;;;25.83;38.70;101185.75;5035392;28;45252;-46
2022/09/04 11:27:50;;;;;;;;;6.00;5.00;;;;;25.84;38.38;101192.78;5037233;28;46585;-41
2022/09/04 11:30:25;;;;;;;;;5.00;5.00;;;;;25.84;38.34;101184.81;5037769;28;45880;-41
2022/09/04 11:33:05;;;;;;;;;6.00;6.00;;;;;25.84;38.81;101190.13;5037303;28;45484;-43
2022/09/04 11:35:51;;;;;;;;;4.25;4.25;;;;;25.85;38.97;101186.47;5038036;28;45302;-47
2022/09/04 11:38:47;;;;;;;;;6.00;6.00;;;;;25.87;38.92;101189.03;5036695;28;46249;-46
2022/09/04 11:41:28;;;;;;;;;4.00;4.00;;;;;25.87;38.52;101184.56;5039631;28;45468;-47
2022/09/04 11:44:06;;;;;;;;;4.50;4.25;;;;;25.89;38.75;101189.78;5044592;28;45243;-45
2022/09/04 11:46:37;;;;;;;;;5.00;5.00;;;;;25.88;38.56;101180.94;5047794;28;45326;-50
2022/09/04 11:49:12;;;;;;;;;6.00;4.75;;;;;25.90;38.38;101180.84;5038759;28;45423;-45
2022/09/04 11:51:59;;;;;;;;;5.00;5.00;;;;;25.91;38.70;101185.19;5042169;28;45614;-42
2022/09/04 11:54:36;;;;;;;;;5.00;5.00;;;;;25.92;38.47;101181.56;5022009;28;45328;-41
2022/09/04 11:57:43;;;;;;;;;5.00;5.00;;;;;25.92;38.83;101177.13;5017649;28;45374;-41
2022/09/04 12:00:11;;;;;;;;;9.75;4.25;;;;;25.93;38.38;101177.97;5015747;28;46071;-42
2022/09/04 12:02:54;;;;;;;;;6.75;5.00;;;;;25.94;38.80;101179.66;5016983;28;45710;-45
2022/09/04 12:05:38;;;;;;;;;7.50;4.25;;;;;25.94;38.42;101182.31;5017958;28;45549;-41
2022/09/04 12:08:22;;;;;;;;;3.00;3.00;;;;;25.93;38.25;101178.81;5028696;28;45408;-41
2022/09/04 12:10:54;;;;;;;;;4.25;4.25;;;;;25.95;38.58;101177.88;5036875;28;45264;-41
2022/09/04 12:13:51;;;;;;;;;4.75;4.75;;;;;25.96;38.52;101174.25;5044028;28;45327;-41
2022/09/04 12:16:42;;;;;;;;;3.75;3.50;;;;;25.96;38.55;101176.91;5038364;28;45319;-44
2022/09/04 12:19:26;;;;;;;;;5.00;5.00;;;;;25.97;38.63;101175.91;5037158;28;46152;-45
2022/09/04 12:22:23;;;;;;;;;4.25;3.75;;;;;25.97;38.30;101163.50;5035047;28;46385;-47
2022/09/04 12:25:16;;;;;;;;;3.25;3.25;;;;;25.97;38.73;101167.94;5037282;28;45811;-46
2022/09/04 12:28:03;;;;;;;;;6.75;4.00;;;;;25.98;38.50;101161.69;5038646;28;45326;-50
2022/09/04 12:31:10;;;;;;;;;5.00;5.00;;;;;25.98;38.33;101165.19;5045169;28;45442;-45
2022/09/04 12:34:03;;;;;;;;;4.75;3.50;;;;;25.99;39.00;101164.25;5045423;28;46514;-42
2022/09/04 12:36:45;;;;;;;;;4.25;4.25;;;;;25.99;38.66;101156.28;5043779;28;45359;-42
2022/09/04 12:39:31;;;;;;;;;5.00;5.00;;;;;26.00;38.84;101157.97;5047245;28;45413;-42
2022/09/04 12:42:22;;;;;;;;;4.50;4.50;;;;;26.01;38.43;101158.81;5049990;28;45541;-43
2022/09/04 12:44:51;;;;;;;;;4.00;4.00;;;;;26.00;38.19;101160.63;5049809;28;46370;-43
2022/09/04 12:47:32;;;;;;;;;5.50;3.50;;;;;26.01;38.45;101161.47;5046087;28;45763;-43
2022/09/04 12:50:10;;;;;;;;;5.00;5.00;;;;;26.01;39.02;101162.31;5041295;28;45509;-42